createdAt,value
2023-05-16T00:00:11.740Z,67.94
2023-05-16T00:02:16.494Z,68.99
2023-05-16T00:04:20.428Z,68.48
2023-05-16T00:06:25.660Z,68.30
2023-05-16T00:08:29.323Z,68.78
2023-05-16T00:10:33.137Z,68.62
2023-05-16T00:12:37.005Z,69.55
2023-05-16T00:14:40.732Z,68.88
2023-05-16T00:16:44.564Z,69.34
2023-05-16T00:18:48.518Z,69.96
2023-05-16T00:20:52.548Z,69.37
2023-05-16T00:23:01.298Z,69.80
2023-05-16T00:25:05.402Z,69.65
2023-05-16T00:27:09.150Z,69.93
2023-05-16T00:29:12.926Z,69.81
2023-05-16T00:31:16.576Z,70.44
2023-05-16T00:33:21.174Z,70.00
2023-05-16T00:35:25.162Z,70.05
2023-05-16T00:37:28.874Z,70.56
2023-05-16T00:39:34.085Z,71.15
2023-05-16T00:41:38.319Z,71.08
2023-05-16T00:43:42.449Z,71.05
2023-05-16T00:45:45.994Z,71.00
2023-05-16T00:47:49.873Z,70.98
2023-05-16T00:49:53.625Z,71.31
2023-05-16T00:51:59.981Z,70.87
2023-05-16T00:54:04.473Z,71.07
2023-05-16T00:56:09.796Z,70.99
2023-05-16T00:58:14.241Z,71.97
2023-05-16T01:00:20.232Z,71.59
2023-05-16T01:02:24.143Z,72.00
2023-05-16T01:04:29.591Z,71.94
2023-05-16T01:06:34.380Z,72.48
2023-05-16T01:08:37.968Z,71.95
2023-05-16T01:10:52.059Z,72.28
2023-05-16T01:13:10.647Z,73.04
2023-05-16T01:15:18.093Z,72.40
2023-05-16T01:17:31.039Z,73.37
2023-05-16T01:19:57.402Z,73.04
2023-05-16T01:22:06.681Z,73.05
2023-05-16T01:24:21.588Z,72.68
2023-05-16T01:26:28.808Z,73.57
2023-05-16T01:28:33.752Z,72.77
2023-05-16T01:30:41.478Z,72.68
2023-05-16T01:32:45.507Z,73.02
2023-05-16T01:34:49.073Z,73.89
2023-05-16T01:37:00.576Z,74.17
2023-05-16T01:39:13.090Z,74.22
2023-05-16T01:41:23.239Z,74.39
2023-05-16T01:43:35.897Z,74.28
2023-05-16T01:45:48.299Z,74.08
2023-05-16T01:48:02.408Z,74.71
2023-05-16T01:50:11.388Z,75.10
2023-05-16T01:52:19.033Z,75.16
2023-05-16T01:54:27.376Z,76.29
2023-05-16T01:56:32.908Z,75.71
2023-05-16T01:58:38.936Z,75.46
2023-05-16T02:00:42.559Z,75.88
2023-05-16T02:02:45.910Z,76.52
2023-05-16T02:04:49.229Z,76.36
2023-05-16T02:06:53.014Z,75.85
2023-05-16T02:08:56.415Z,76.00
2023-05-16T02:10:59.658Z,75.48
2023-05-16T02:13:03.027Z,76.00
2023-05-16T02:15:09.052Z,75.79
2023-05-16T02:17:12.476Z,76.06
2023-05-16T02:19:15.812Z,77.00
2023-05-16T02:21:19.254Z,76.67
2023-05-16T02:23:22.557Z,76.73
2023-05-16T02:25:26.573Z,76.04
2023-05-16T02:27:30.091Z,75.77
2023-05-16T02:29:33.379Z,75.91
2023-05-16T02:31:38.208Z,77.01
2023-05-16T02:33:41.901Z,77.17
2023-05-16T02:35:45.964Z,76.74
2023-05-16T02:37:49.229Z,75.95
2023-05-16T02:39:53.681Z,76.65
2023-05-16T02:41:57.060Z,76.90
2023-05-16T02:44:00.363Z,77.05
2023-05-16T02:46:06.270Z,77.15
2023-05-16T02:48:12.062Z,77.39
2023-05-16T02:50:15.385Z,77.86
2023-05-16T02:52:18.834Z,78.15
2023-05-16T02:54:22.231Z,78.58
2023-05-16T02:56:26.339Z,79.02
2023-05-16T02:58:29.682Z,78.67
2023-05-16T03:00:33.979Z,78.09
2023-05-16T03:02:37.286Z,78.82
2023-05-16T03:04:44.602Z,78.64
2023-05-16T03:06:47.932Z,79.02
2023-05-16T03:08:51.265Z,78.30
2023-05-16T03:10:54.601Z,79.36
2023-05-16T03:12:57.864Z,78.88
2023-05-16T03:15:01.968Z,79.54
2023-05-16T03:17:06.601Z,79.25
2023-05-16T03:19:10.730Z,79.26
2023-05-16T03:21:16.065Z,79.83
2023-05-16T03:23:22.068Z,79.41
2023-05-16T03:25:26.780Z,79.49
2023-05-16T03:27:30.555Z,79.74
2023-05-16T03:29:34.183Z,79.61
2023-05-16T03:31:37.868Z,80.11
2023-05-16T03:33:41.740Z,79.65
2023-05-16T03:35:45.959Z,79.52
2023-05-16T03:37:51.430Z,80.22
2023-05-16T03:39:55.326Z,79.37
2023-05-16T03:41:59.284Z,79.51
2023-05-16T03:44:02.891Z,80.30
2023-05-16T03:46:06.530Z,79.86
2023-05-16T03:48:11.041Z,79.63
2023-05-16T03:50:14.611Z,80.16
2023-05-16T03:52:18.118Z,79.66
2023-05-16T03:54:23.712Z,80.32
2023-05-16T03:56:27.509Z,80.45
2023-05-16T03:58:31.272Z,80.67
2023-05-16T04:00:36.919Z,80.34
2023-05-16T04:02:42.068Z,80.64
2023-05-16T04:04:46.099Z,80.85
2023-05-16T04:06:49.672Z,80.39
2023-05-16T04:08:53.277Z,80.93
2023-05-16T04:10:58.463Z,81.19
2023-05-16T04:13:02.190Z,80.82
2023-05-16T04:15:07.305Z,80.49
2023-05-16T04:17:11.345Z,81.18
2023-05-16T04:19:14.877Z,81.47
2023-05-16T04:21:18.734Z,81.07
2023-05-16T04:23:22.369Z,81.03
2023-05-16T04:25:26.226Z,81.13
2023-05-16T04:27:31.770Z,81.14
2023-05-16T04:29:35.393Z,80.92
2023-05-16T04:31:39.459Z,81.16
2023-05-16T04:33:43.217Z,81.64
2023-05-16T04:35:46.773Z,81.21
2023-05-16T04:37:50.369Z,81.43
2023-05-16T04:39:54.611Z,81.04
2023-05-16T04:41:59.481Z,81.65
2023-05-16T04:44:05.360Z,81.88
2023-05-16T04:46:09.151Z,82.00
2023-05-16T04:48:13.760Z,81.51
2023-05-16T04:50:18.438Z,82.10
2023-05-16T04:52:22.310Z,81.54
2023-05-16T04:54:26.562Z,81.08
2023-05-16T04:56:30.313Z,81.56
2023-05-16T04:58:33.894Z,81.06
2023-05-16T05:00:38.983Z,80.81
2023-05-16T05:02:42.220Z,81.05
2023-05-16T05:04:45.808Z,80.71
2023-05-16T05:06:49.402Z,80.16
2023-05-16T05:08:52.913Z,80.43
2023-05-16T05:10:58.084Z,80.40
2023-05-16T05:13:01.550Z,79.97
2023-05-16T05:15:05.707Z,80.16
2023-05-16T05:17:10.518Z,79.34
2023-05-16T05:19:14.342Z,80.04
2023-05-16T05:21:18.688Z,79.68
2023-05-16T05:23:22.417Z,79.73
2023-05-16T05:25:26.075Z,80.00
2023-05-16T05:27:29.979Z,79.95
2023-05-16T05:29:34.040Z,79.35
2023-05-16T05:31:37.589Z,79.73
2023-05-16T05:33:42.748Z,78.80
2023-05-16T05:35:46.268Z,78.34
2023-05-16T05:37:49.864Z,76.88
2023-05-16T05:39:53.426Z,74.60
2023-05-16T05:41:56.989Z,73.71
2023-05-16T05:44:00.728Z,71.82
2023-05-16T05:46:04.310Z,70.33
2023-05-16T05:48:08.696Z,67.50
2023-05-16T05:50:14.533Z,66.25
2023-05-16T05:52:18.140Z,64.19
2023-05-16T05:54:21.637Z,62.92
2023-05-16T05:56:25.768Z,62.06
2023-05-16T05:58:29.205Z,60.85
2023-05-16T06:00:32.854Z,59.40
2023-05-16T06:02:37.361Z,58.51
2023-05-16T06:04:43.019Z,57.95
2023-05-16T06:06:47.932Z,57.40
2023-05-16T06:08:51.540Z,56.87
2023-05-16T06:10:55.295Z,55.82
2023-05-16T06:12:59.128Z,54.64
2023-05-16T06:15:02.795Z,54.66
2023-05-16T06:17:06.906Z,53.71
2023-05-16T06:19:12.814Z,52.42
2023-05-16T06:21:16.515Z,52.65
2023-05-16T06:23:22.177Z,51.73
2023-05-16T06:25:25.972Z,51.13
2023-05-16T06:27:29.740Z,49.93
2023-05-16T06:29:33.258Z,49.76
2023-05-16T06:31:37.084Z,48.87
2023-05-16T06:33:41.134Z,49.28
2023-05-16T06:35:45.007Z,49.35
2023-05-16T06:37:48.867Z,48.89
2023-05-16T06:39:54.306Z,49.02
2023-05-16T06:41:58.200Z,48.72
2023-05-16T06:44:02.165Z,49.01
2023-05-16T06:46:06.195Z,48.38
2023-05-16T06:48:10.164Z,47.83
2023-05-16T06:50:14.524Z,47.88
2023-05-16T06:52:18.277Z,48.33
2023-05-16T06:54:22.138Z,48.14
2023-05-16T06:56:29.131Z,47.86
2023-05-16T06:58:32.788Z,47.66
2023-05-16T07:00:36.907Z,47.32
2023-05-16T07:02:40.652Z,46.29
2023-05-16T07:04:44.523Z,46.38
2023-05-16T07:06:48.436Z,46.43
2023-05-16T07:08:52.939Z,46.50
2023-05-16T07:10:57.368Z,46.33
2023-05-16T07:13:03.250Z,46.62
2023-05-16T07:15:09.144Z,46.68
2023-05-16T07:17:13.898Z,46.03
2023-05-16T07:19:18.352Z,45.78
2023-05-16T07:21:22.429Z,45.87
2023-05-16T07:23:27.029Z,45.72
2023-05-16T07:25:31.989Z,46.00
2023-05-16T07:27:35.990Z,47.04
2023-05-16T07:29:43.233Z,47.25
2023-05-16T07:31:48.235Z,48.37
2023-05-16T07:33:52.853Z,48.92
2023-05-16T07:36:07.922Z,49.12
2023-05-16T07:38:19.465Z,48.54
2023-05-16T07:40:26.219Z,47.71
2023-05-16T07:42:30.594Z,46.45
2023-05-16T07:44:35.199Z,46.35
2023-05-16T07:46:40.934Z,46.46
2023-05-16T07:48:47.279Z,45.67
2023-05-16T07:50:52.099Z,45.76
2023-05-16T07:52:58.170Z,45.75
2023-05-16T07:55:02.308Z,45.37
2023-05-16T07:57:06.841Z,45.73
2023-05-16T07:59:10.812Z,45.89
2023-05-16T08:01:14.547Z,45.92
2023-05-16T08:03:19.892Z,45.14
2023-05-16T08:05:24.225Z,45.78
2023-05-16T08:07:28.813Z,45.87
2023-05-16T08:09:33.727Z,45.95
2023-05-16T08:11:37.641Z,45.76
2023-05-16T08:13:41.355Z,45.97
2023-05-16T08:15:45.187Z,46.71
2023-05-16T08:17:49.908Z,46.77
2023-05-16T08:19:55.378Z,47.05
2023-05-16T08:21:59.574Z,47.60
2023-05-16T08:24:07.620Z,48.10
2023-05-16T08:26:12.856Z,49.66
2023-05-16T08:28:17.781Z,50.86
2023-05-16T08:30:21.655Z,52.22
2023-05-16T08:32:26.170Z,52.51
2023-05-16T08:34:33.087Z,53.27
2023-05-16T08:36:39.241Z,54.15
2023-05-16T08:38:42.902Z,54.75
2023-05-16T08:40:47.406Z,55.07
2023-05-16T08:42:52.102Z,55.01
2023-05-16T08:44:57.222Z,56.23
2023-05-16T08:47:07.648Z,56.87
2023-05-16T08:49:13.007Z,57.21
2023-05-16T08:51:19.510Z,57.29
2023-05-16T08:53:33.418Z,57.89
2023-05-16T08:55:38.090Z,57.30
2023-05-16T08:57:42.773Z,57.12
2023-05-16T08:59:47.270Z,57.85
2023-05-16T09:01:51.605Z,57.74
2023-05-16T09:03:56.942Z,57.76
2023-05-16T09:06:01.096Z,57.51
2023-05-16T09:08:05.244Z,57.42
2023-05-16T09:10:12.257Z,57.49
2023-05-16T09:12:16.236Z,57.58
2023-05-16T09:14:20.410Z,58.07
2023-05-16T09:16:24.462Z,57.70
2023-05-16T09:18:28.523Z,57.75
2023-05-16T09:20:33.097Z,57.58
2023-05-16T09:22:36.598Z,58.46
2023-05-16T09:24:41.268Z,57.98
2023-05-16T09:26:47.418Z,57.62
2023-05-16T09:28:55.455Z,57.21
2023-05-16T09:31:00.673Z,57.24
2023-05-16T09:33:04.640Z,57.09
2023-05-16T09:35:13.216Z,57.08
2023-05-16T09:37:17.688Z,56.14
2023-05-16T09:39:23.814Z,54.31
2023-05-16T09:41:27.622Z,53.96
2023-05-16T09:43:33.981Z,53.33
2023-05-16T09:45:39.537Z,53.17
2023-05-16T09:47:47.459Z,52.72
2023-05-16T09:49:54.698Z,51.72
2023-05-16T09:52:01.366Z,51.87
2023-05-16T09:54:10.195Z,51.84
2023-05-16T09:56:16.332Z,51.89
2023-05-16T09:58:20.154Z,51.77
2023-05-16T10:00:31.597Z,51.41
2023-05-16T10:02:36.800Z,51.21
2023-05-16T10:04:41.036Z,51.59
2023-05-16T10:06:47.220Z,51.75
2023-05-16T10:08:52.465Z,51.81
2023-05-16T10:10:57.694Z,51.50
2023-05-16T10:13:03.711Z,50.93
2023-05-16T10:15:08.538Z,50.00
2023-05-16T10:17:17.385Z,50.03
2023-05-16T10:19:25.713Z,50.78
2023-05-16T10:21:31.035Z,51.34
2023-05-16T10:23:35.597Z,51.79
2023-05-16T10:25:44.718Z,51.68
2023-05-16T10:27:48.865Z,51.87
2023-05-16T10:29:54.963Z,51.70
2023-05-16T10:32:01.208Z,51.81
2023-05-16T10:34:06.698Z,51.76
2023-05-16T10:36:12.580Z,51.45
2023-05-16T10:38:19.093Z,51.37
2023-05-16T10:40:24.307Z,51.62
2023-05-16T10:42:28.390Z,51.25
2023-05-16T10:44:34.747Z,50.77
2023-05-16T10:46:40.380Z,50.54
2023-05-16T10:48:45.034Z,48.71
2023-05-16T10:50:50.508Z,48.80
2023-05-16T10:52:54.987Z,48.98
2023-05-16T10:55:03.784Z,48.94
2023-05-16T10:57:10.200Z,48.43
2023-05-16T10:59:41.945Z,48.43
2023-05-16T11:01:45.909Z,48.14
2023-05-16T11:04:08.547Z,47.33
2023-05-16T11:06:14.753Z,48.03
2023-05-16T11:08:20.397Z,48.08
2023-05-16T11:10:24.122Z,48.76
2023-05-16T11:12:38.772Z,48.67
2023-05-16T11:14:43.892Z,48.91
2023-05-16T11:16:52.009Z,48.89
2023-05-16T11:18:56.193Z,48.91
2023-05-16T11:21:06.092Z,49.23
2023-05-16T11:23:25.964Z,50.15
2023-05-16T11:25:41.564Z,49.79
2023-05-16T11:27:47.164Z,49.85
2023-05-16T11:29:51.775Z,49.53
2023-05-16T11:31:55.840Z,49.42
2023-05-16T11:34:00.276Z,49.43
2023-05-16T11:36:15.344Z,49.34
2023-05-16T11:38:20.608Z,49.26
2023-05-16T11:40:26.299Z,49.33
2023-05-16T11:42:34.319Z,49.85
2023-05-16T11:44:38.406Z,49.90
2023-05-16T11:46:42.631Z,49.77
2023-05-16T11:48:47.656Z,49.02
2023-05-16T11:50:54.833Z,48.75
2023-05-16T11:52:59.618Z,47.79
2023-05-16T11:55:05.006Z,48.09
2023-05-16T11:57:11.714Z,48.03
2023-05-16T11:59:16.085Z,47.60
2023-05-16T12:01:20.399Z,47.60
2023-05-16T12:03:25.534Z,47.69
2023-05-16T12:05:32.448Z,47.55
2023-05-16T12:07:37.189Z,47.72
2023-05-16T12:09:41.345Z,48.13
2023-05-16T12:11:46.050Z,48.16
2023-05-16T12:13:51.227Z,48.50
2023-05-16T12:15:55.478Z,48.13
2023-05-16T12:17:59.707Z,48.40
2023-05-16T12:20:06.351Z,48.15
2023-05-16T12:22:19.156Z,47.36
2023-05-16T12:24:23.014Z,47.74
2023-05-16T12:26:31.129Z,47.37
2023-05-16T12:28:36.544Z,47.25
2023-05-16T12:30:44.749Z,47.62
2023-05-16T12:33:05.813Z,47.88
2023-05-16T12:35:19.065Z,47.47
2023-05-16T12:37:24.343Z,47.39
2023-05-16T12:39:29.254Z,47.36
2023-05-16T12:41:35.458Z,47.66
2023-05-16T12:43:40.130Z,47.89
2023-05-16T12:45:53.590Z,48.21
2023-05-16T12:47:58.830Z,47.81
2023-05-16T12:50:04.800Z,48.33
2023-05-16T12:52:23.655Z,48.51
2023-05-16T12:54:28.858Z,49.29
2023-05-16T12:56:36.881Z,49.49
2023-05-16T12:58:43.936Z,49.45
2023-05-16T13:00:50.878Z,49.75
2023-05-16T13:02:56.831Z,49.71
2023-05-16T13:05:03.203Z,49.79
2023-05-16T13:07:09.810Z,49.44
2023-05-16T13:09:15.574Z,49.55
2023-05-16T13:11:21.935Z,48.88
2023-05-16T13:13:35.805Z,48.55
2023-05-16T13:15:40.570Z,48.73
2023-05-16T13:17:46.116Z,48.00
2023-05-16T13:19:50.005Z,47.80
2023-05-16T13:21:54.006Z,47.90
2023-05-16T13:23:59.187Z,48.02
2023-05-16T13:26:03.457Z,47.56
2023-05-16T13:28:07.460Z,47.45
2023-05-16T13:30:11.952Z,47.71
2023-05-16T13:32:16.060Z,47.82
2023-05-16T13:34:21.925Z,47.88
2023-05-16T13:36:26.031Z,48.27
2023-05-16T13:38:30.205Z,47.39
2023-05-16T13:40:36.203Z,47.27
2023-05-16T13:42:44.534Z,47.16
2023-05-16T13:44:50.569Z,47.77
2023-05-16T13:46:58.573Z,47.79
2023-05-16T13:49:03.950Z,48.55
2023-05-16T13:51:11.427Z,48.64
2023-05-16T13:53:17.625Z,48.96
2023-05-16T13:55:24.882Z,49.02
2023-05-16T13:57:30.474Z,49.13
2023-05-16T14:01:49.585Z,48.44
2023-05-16T14:03:56.270Z,48.32
2023-05-16T14:06:08.995Z,47.80
2023-05-16T14:08:17.870Z,48.10
2023-05-16T14:10:22.868Z,47.91
2023-05-16T14:12:30.208Z,47.88
2023-05-16T14:14:36.567Z,47.95
2023-05-16T14:16:45.666Z,48.10
2023-05-16T14:18:50.412Z,48.39
2023-05-16T14:20:58.331Z,47.97
2023-05-16T14:23:03.001Z,48.12
2023-05-16T14:25:12.465Z,48.06
2023-05-16T14:27:19.280Z,48.52
2023-05-16T14:29:26.699Z,48.69
2023-05-16T14:31:33.215Z,48.85
2023-05-16T14:33:38.086Z,48.39
2023-05-16T14:35:43.644Z,48.75
2023-05-16T14:37:53.297Z,48.63
2023-05-16T14:40:01.448Z,48.75
2023-05-16T14:42:09.320Z,48.97
2023-05-16T14:44:25.576Z,49.21
2023-05-16T14:46:31.109Z,48.59
2023-05-16T14:48:37.473Z,48.61
2023-05-16T14:50:44.968Z,48.15
2023-05-16T14:52:53.633Z,48.57
2023-05-16T14:54:58.402Z,48.21
2023-05-16T14:57:04.276Z,48.26
2023-05-16T14:59:10.144Z,48.67
2023-05-16T15:01:17.012Z,48.69
2023-05-16T15:03:22.404Z,49.16
2023-05-16T15:05:27.190Z,48.65
2023-05-16T15:07:32.838Z,48.95
2023-05-16T15:09:37.540Z,49.04
2023-05-16T15:11:43.150Z,48.71
2023-05-16T15:13:48.934Z,49.23
2023-05-16T15:16:00.351Z,48.71
2023-05-16T15:18:05.681Z,49.05
2023-05-16T15:20:12.340Z,49.04
2023-05-16T15:22:16.574Z,48.94
2023-05-16T15:24:20.743Z,48.50
2023-05-16T15:26:25.348Z,48.39
2023-05-16T15:28:29.512Z,48.42
2023-05-16T15:30:33.217Z,48.34
2023-05-16T15:32:39.683Z,48.18
2023-05-16T15:34:43.835Z,48.27
2023-05-16T15:36:47.991Z,48.52
2023-05-16T15:38:53.192Z,48.38
2023-05-16T15:41:14.121Z,48.23
2023-05-16T15:43:23.207Z,48.62
2023-05-16T15:45:28.611Z,48.15
2023-05-16T15:47:33.231Z,48.28
2023-05-16T15:49:39.408Z,48.68
2023-05-16T15:51:44.002Z,48.54
2023-05-16T15:53:49.296Z,48.30
2023-05-16T15:55:53.344Z,48.53
2023-05-16T15:57:58.828Z,48.50
2023-05-16T16:00:03.405Z,48.31
2023-05-16T16:02:16.001Z,47.99
2023-05-16T16:04:23.370Z,48.10
2023-05-16T16:06:29.324Z,48.41
2023-05-16T16:08:33.770Z,48.72
2023-05-16T16:10:37.671Z,48.84
2023-05-16T16:12:42.031Z,48.74
2023-05-16T16:14:46.873Z,48.83
2023-05-16T16:16:51.219Z,49.17
2023-05-16T16:18:56.858Z,49.59
2023-05-16T16:21:01.503Z,49.35
2023-05-16T16:23:06.794Z,49.18
2023-05-16T16:25:11.375Z,49.12
2023-05-16T16:27:15.409Z,49.13
2023-05-16T16:29:19.743Z,49.07
2023-05-16T16:31:23.552Z,48.79
2023-05-16T16:33:27.892Z,47.76
2023-05-16T16:35:32.019Z,48.10
2023-05-16T16:37:36.362Z,47.97
2023-05-16T16:39:44.467Z,48.08
2023-05-16T16:41:48.733Z,48.22
2023-05-16T16:43:53.162Z,48.10
2023-05-16T16:45:56.993Z,47.77
2023-05-16T16:48:01.097Z,47.70
2023-05-16T16:50:05.362Z,48.23
2023-05-16T16:52:09.488Z,48.09
2023-05-16T16:54:14.248Z,47.81
2023-05-16T16:56:19.849Z,47.33
2023-05-16T16:58:23.710Z,47.60
2023-05-16T17:00:27.757Z,47.90
2023-05-16T17:02:32.040Z,47.57
2023-05-16T17:04:37.050Z,48.02
2023-05-16T17:06:42.536Z,48.05
2023-05-16T17:08:46.773Z,48.52
2023-05-16T17:10:50.865Z,48.41
2023-05-16T17:12:56.298Z,48.43
2023-05-16T17:14:59.933Z,48.40
2023-05-16T17:17:03.870Z,48.28
2023-05-16T17:19:08.654Z,48.33
2023-05-16T17:21:13.393Z,48.64
2023-05-16T17:23:16.804Z,48.96
2023-05-16T17:25:20.827Z,48.89
2023-05-16T17:27:25.148Z,49.19
2023-05-16T17:29:30.743Z,49.15
2023-05-16T17:31:34.477Z,49.05
2023-05-16T17:33:38.763Z,49.13
2023-05-16T17:35:43.517Z,49.01
2023-05-16T17:37:48.280Z,48.63
2023-05-16T17:39:52.871Z,47.59
2023-05-16T17:41:58.061Z,47.65
2023-05-16T17:44:02.409Z,47.22
2023-05-16T17:46:08.412Z,46.97
2023-05-16T17:48:13.064Z,47.07
2023-05-16T17:50:16.996Z,47.14
2023-05-16T17:52:23.238Z,47.30
2023-05-16T17:54:30.827Z,47.51
2023-05-16T17:56:34.819Z,47.80
2023-05-16T17:58:39.549Z,47.82
2023-05-16T18:00:43.053Z,47.92
2023-05-16T18:02:49.050Z,48.02
2023-05-16T18:04:54.144Z,47.81
2023-05-16T18:06:59.122Z,47.90
2023-05-16T18:09:06.473Z,47.92
2023-05-16T18:11:10.649Z,47.80
2023-05-16T18:13:15.340Z,47.58
2023-05-16T18:15:27.667Z,47.78
2023-05-16T18:17:32.142Z,47.50
2023-05-16T18:19:39.172Z,47.31
2023-05-16T18:21:44.552Z,47.62
2023-05-16T18:23:53.048Z,47.69
2023-05-16T18:25:58.015Z,47.26
2023-05-16T18:28:03.148Z,47.30
2023-05-16T18:30:09.454Z,47.24
2023-05-16T18:32:14.439Z,47.30
2023-05-16T18:34:17.872Z,47.77
2023-05-16T18:36:24.968Z,47.79
2023-05-16T18:38:33.149Z,47.94
2023-05-16T18:40:40.183Z,47.47
2023-05-16T18:42:44.745Z,47.70
2023-05-16T18:44:50.691Z,47.28
2023-05-16T18:46:55.412Z,47.39
2023-05-16T18:48:59.666Z,47.18
2023-05-16T18:51:03.933Z,47.68
2023-05-16T18:53:10.348Z,47.87
2023-05-16T18:55:15.898Z,47.74
2023-05-16T18:57:21.046Z,47.61
2023-05-16T18:59:25.965Z,47.95
2023-05-16T19:01:30.383Z,47.82
2023-05-16T19:03:34.781Z,48.00
2023-05-16T19:05:39.463Z,47.70
2023-05-16T19:07:43.842Z,48.07
2023-05-16T19:09:49.656Z,48.06
2023-05-16T19:11:56.208Z,47.76
2023-05-16T19:14:00.020Z,47.82
2023-05-16T19:16:04.755Z,47.93
2023-05-16T19:18:08.506Z,47.67
2023-05-16T19:20:13.319Z,47.84
2023-05-16T19:22:18.062Z,47.74
2023-05-16T19:24:22.781Z,47.87
2023-05-16T19:26:28.961Z,48.22
2023-05-16T19:28:33.985Z,47.95
2023-05-16T19:30:39.523Z,48.21
2023-05-16T19:32:44.327Z,48.66
2023-05-16T19:34:49.385Z,49.06
2023-05-16T19:36:54.254Z,49.34
2023-05-16T19:38:59.696Z,49.41
2023-05-16T19:41:05.554Z,49.83
2023-05-16T19:43:11.260Z,50.40
2023-05-16T19:45:15.441Z,50.45
2023-05-16T19:47:19.680Z,50.74
2023-05-16T19:49:23.361Z,51.07
2023-05-16T19:51:40.586Z,51.14
2023-05-16T19:53:47.307Z,51.36
2023-05-16T19:55:53.479Z,51.32
2023-05-16T19:57:57.689Z,51.35
2023-05-16T20:00:05.514Z,51.58
2023-05-16T20:02:18.965Z,51.95
2023-05-16T20:04:25.797Z,51.99
2023-05-16T20:06:29.965Z,52.13
2023-05-16T20:08:34.514Z,52.53
2023-05-16T20:10:38.489Z,52.81
2023-05-16T20:12:42.649Z,52.63
2023-05-16T20:14:46.897Z,52.84
2023-05-16T20:16:53.672Z,53.12
2023-05-16T20:18:57.826Z,53.38
2023-05-16T20:21:01.916Z,53.54
2023-05-16T20:23:06.020Z,53.76
2023-05-16T20:25:11.925Z,53.82
2023-05-16T20:27:25.223Z,54.10
2023-05-16T20:29:30.631Z,54.66
2023-05-16T20:31:34.897Z,55.11
2023-05-16T20:33:40.479Z,55.63
2023-05-16T20:35:44.612Z,56.21
2023-05-16T20:37:48.781Z,57.00
2023-05-16T20:39:52.613Z,57.16
2023-05-16T20:41:56.829Z,57.49
2023-05-16T20:44:01.254Z,58.03
2023-05-16T20:46:05.196Z,57.72
2023-05-16T20:48:09.414Z,58.19
2023-05-16T20:50:37.097Z,58.53
2023-05-16T20:52:40.992Z,58.56
2023-05-16T20:54:45.251Z,59.41
2023-05-16T20:56:49.959Z,59.69
2023-05-16T20:58:53.769Z,60.44
2023-05-16T21:00:58.880Z,60.07
2023-05-16T21:03:03.852Z,60.76
2023-05-16T21:05:23.437Z,62.19
2023-05-16T21:07:30.623Z,61.36
2023-05-16T21:09:38.142Z,62.10
2023-05-16T21:11:42.590Z,62.02
2023-05-16T21:13:46.557Z,62.35
2023-05-16T21:15:50.692Z,63.18
2023-05-16T21:17:55.759Z,63.69
2023-05-16T21:20:00.090Z,64.43
2023-05-16T21:22:04.408Z,64.40
2023-05-16T21:24:10.015Z,64.95
2023-05-16T21:26:13.851Z,64.60
2023-05-16T21:28:18.010Z,64.66
2023-05-16T21:30:21.662Z,65.77
2023-05-16T21:32:25.875Z,65.38
2023-05-16T21:34:29.722Z,65.48
2023-05-16T21:36:33.798Z,65.38
2023-05-16T21:38:37.825Z,65.92
2023-05-16T21:40:43.174Z,66.81
2023-05-16T21:42:47.320Z,66.98
2023-05-16T21:44:51.319Z,66.50
2023-05-16T21:46:54.999Z,66.88
2023-05-16T21:48:58.948Z,66.78
2023-05-16T21:51:02.797Z,67.02
2023-05-16T21:53:06.459Z,67.03
2023-05-16T21:55:10.812Z,67.57
2023-05-16T21:57:16.051Z,67.97
2023-05-16T21:59:19.686Z,67.74
2023-05-16T22:01:25.416Z,67.68
2023-05-16T22:03:29.094Z,68.54
2023-05-16T22:05:32.903Z,67.92
2023-05-16T22:07:37.146Z,69.02
2023-05-16T22:09:41.748Z,69.00
2023-05-16T22:11:45.431Z,69.75
2023-05-16T22:13:51.296Z,69.33
2023-05-16T22:16:03.854Z,70.66
2023-05-16T22:18:08.278Z,70.30
2023-05-16T22:20:12.735Z,70.85
2023-05-16T22:22:16.676Z,71.20
2023-05-16T22:24:20.401Z,72.37
2023-05-16T22:26:24.061Z,71.97
2023-05-16T22:28:27.761Z,72.81
2023-05-16T22:30:32.862Z,72.80
2023-05-16T22:32:37.213Z,72.75
2023-05-16T22:34:41.207Z,72.85
2023-05-16T22:36:45.345Z,72.91
2023-05-16T22:38:49.108Z,73.42
2023-05-16T22:40:52.921Z,73.23
2023-05-16T22:42:56.832Z,73.07
2023-05-16T22:45:00.688Z,73.66
2023-05-16T22:47:06.246Z,73.56
2023-05-16T22:49:10.000Z,73.37
2023-05-16T22:51:13.731Z,72.98
2023-05-16T22:53:17.432Z,72.95
2023-05-16T22:55:21.105Z,73.97
2023-05-16T22:57:24.876Z,74.36
2023-05-16T22:59:28.529Z,73.79
2023-05-16T23:01:32.295Z,74.69
2023-05-16T23:03:37.606Z,74.80
2023-05-16T23:05:41.777Z,75.89
2023-05-16T23:07:45.932Z,75.11
2023-05-16T23:09:49.861Z,76.06
2023-05-16T23:11:53.653Z,75.30
2023-05-16T23:13:57.527Z,75.58
2023-05-16T23:16:01.284Z,75.40
2023-05-16T23:18:05.136Z,74.95
2023-05-16T23:20:11.261Z,75.50
2023-05-16T23:22:14.997Z,75.10
2023-05-16T23:24:18.696Z,75.17
2023-05-16T23:26:22.395Z,75.02
2023-05-16T23:28:26.332Z,74.81
2023-05-16T23:30:30.102Z,74.83
2023-05-16T23:32:33.830Z,74.61
2023-05-16T23:34:37.496Z,74.93
2023-05-16T23:36:42.583Z,75.08
2023-05-16T23:38:46.260Z,74.79
2023-05-16T23:40:49.938Z,74.45
2023-05-16T23:42:54.072Z,74.17
2023-05-16T23:44:57.698Z,75.32
2023-05-16T23:47:01.768Z,74.77
2023-05-16T23:49:05.581Z,75.28
2023-05-16T23:51:09.479Z,74.81
2023-05-16T23:53:14.801Z,75.14
2023-05-16T23:55:20.580Z,74.72
2023-05-16T23:57:24.486Z,74.99
2023-05-16T23:59:28.277Z,74.98
